sensor_id;sensor_type;location;lat;lon;timestamp;temperature;humidity
7936;DHT22;4013;49.744;8.118;2023-05-10T00:00:33;13.60;99.90
7936;DHT22;4013;49.744;8.118;2023-05-10T00:03:00;13.60;99.90
7936;DHT22;4013;49.744;8.118;2023-05-10T00:05:27;13.50;99.90
7936;DHT22;4013;49.744;8.118;2023-05-10T00:08:12;13.50;99.90
7936;DHT22;4013;49.744;8.118;2023-05-10T00:10:41;13.40;99.90
7936;DHT22;4013;49.744;8.118;2023-05-10T00:13:08;13.40;99.90
7936;DHT22;4013;49.744;8.118;2023-05-10T00:15:52;13.40;99.90
7936;DHT22;4013;49.744;8.118;2023-05-10T00:21:05;13.50;99.90
7936;DHT22;4013;49.744;8.118;2023-05-10T00:23:49;13.40;99.90
7936;DHT22;4013;49.744;8.118;2023-05-10T00:26:17;13.40;99.90
7936;DHT22;4013;49.744;8.118;2023-05-10T00:29:01;13.40;99.90
7936;DHT22;4013;49.744;8.118;2023-05-10T00:31:28;13.40;99.90
7936;DHT22;4013;49.744;8.118;2023-05-10T00:34:13;13.40;99.90
7936;DHT22;4013;49.744;8.118;2023-05-10T00:36:40;13.40;99.90
7936;DHT22;4013;49.744;8.118;2023-05-10T00:39:07;13.40;99.90
7936;DHT22;4013;49.744;8.118;2023-05-10T00:41:52;13.40;99.90
7936;DHT22;4013;49.744;8.118;2023-05-10T00:47:41;13.30;99.90
7936;DHT22;4013;49.744;8.118;2023-05-10T00:50:27;13.40;99.90
7936;DHT22;4013;49.744;8.118;2023-05-10T00:52:54;13.40;99.90
7936;DHT22;4013;49.744;8.118;2023-05-10T00:58:08;13.40;99.90
7936;DHT22;4013;49.744;8.118;2023-05-10T01:00:53;13.40;99.90
7936;DHT22;4013;49.744;8.118;2023-05-10T01:03:21;13.40;99.90
7936;DHT22;4013;49.744;8.118;2023-05-10T01:06:06;13.30;99.90
7936;DHT22;4013;49.744;8.118;2023-05-10T01:08:50;13.40;99.90
7936;DHT22;4013;49.744;8.118;2023-05-10T01:14:04;13.30;99.90
7936;DHT22;4013;49.744;8.118;2023-05-10T01:16:34;13.30;99.90
7936;DHT22;4013;49.744;8.118;2023-05-10T01:19:04;13.30;99.90
7936;DHT22;4013;49.744;8.118;2023-05-10T01:21:38;13.20;99.90
7936;DHT22;4013;49.744;8.118;2023-05-10T01:27:38;13.20;99.90
7936;DHT22;4013;49.744;8.118;2023-05-10T01:33:28;13.20;99.90
7936;DHT22;4013;49.744;8.118;2023-05-10T01:36:03;13.20;99.90
7936;DHT22;4013;49.744;8.118;2023-05-10T01:41:24;13.20;99.90
7936;DHT22;4013;49.744;8.118;2023-05-10T01:44:00;13.10;99.90
7936;DHT22;4013;49.744;8.118;2023-05-10T01:49:40;13.10;99.90
7936;DHT22;4013;49.744;8.118;2023-05-10T01:58:04;13.20;99.90
7936;DHT22;4013;49.744;8.118;2023-05-10T02:00:33;13.20;99.90
7936;DHT22;4013;49.744;8.118;2023-05-10T02:03:05;13.20;99.90
7936;DHT22;4013;49.744;8.118;2023-05-10T02:05:52;13.20;99.90
7936;DHT22;4013;49.744;8.118;2023-05-10T02:08:21;13.20;99.90
7936;DHT22;4013;49.744;8.118;2023-05-10T02:10:50;13.20;99.90
7936;DHT22;4013;49.744;8.118;2023-05-10T02:13:18;13.10;99.90
7936;DHT22;4013;49.744;8.118;2023-05-10T02:15:47;13.10;99.90
7936;DHT22;4013;49.744;8.118;2023-05-10T02:18:16;13.10;99.90
7936;DHT22;4013;49.744;8.118;2023-05-10T02:20:44;13.10;99.90
7936;DHT22;4013;49.744;8.118;2023-05-10T02:23:13;13.10;99.90
7936;DHT22;4013;49.744;8.118;2023-05-10T02:25:43;13.10;99.90
7936;DHT22;4013;49.744;8.118;2023-05-10T02:28:12;13.00;99.90
7936;DHT22;4013;49.744;8.118;2023-05-10T02:30:40;13.00;99.90
7936;DHT22;4013;49.744;8.118;2023-05-10T02:33:24;13.00;99.90
7936;DHT22;4013;49.744;8.118;2023-05-10T02:35:52;13.00;99.90
7936;DHT22;4013;49.744;8.118;2023-05-10T02:38:39;13.00;99.90
7936;DHT22;4013;49.744;8.118;2023-05-10T02:43:57;13.00;99.90
7936;DHT22;4013;49.744;8.118;2023-05-10T02:46:25;13.00;99.90
7936;DHT22;4013;49.744;8.118;2023-05-10T02:48:52;13.00;99.90
7936;DHT22;4013;49.744;8.118;2023-05-10T02:51:21;13.00;99.90
7936;DHT22;4013;49.744;8.118;2023-05-10T02:53:53;13.00;99.90
7936;DHT22;4013;49.744;8.118;2023-05-10T02:56:25;13.00;99.90
7936;DHT22;4013;49.744;8.118;2023-05-10T02:58:55;13.00;99.90
7936;DHT22;4013;49.744;8.118;2023-05-10T03:01:22;13.00;99.90
7936;DHT22;4013;49.744;8.118;2023-05-10T03:04:07;13.00;99.90
7936;DHT22;4013;49.744;8.118;2023-05-10T03:09:58;13.00;99.90
7936;DHT22;4013;49.744;8.118;2023-05-10T03:12:32;13.00;99.90
7936;DHT22;4013;49.744;8.118;2023-05-10T03:18:07;13.00;99.90
7936;DHT22;4013;49.744;8.118;2023-05-10T03:20:56;13.00;99.90
7936;DHT22;4013;49.744;8.118;2023-05-10T03:23:27;12.90;99.90
7936;DHT22;4013;49.744;8.118;2023-05-10T03:26:17;13.00;99.90
7936;DHT22;4013;49.744;8.118;2023-05-10T03:31:48;13.00;99.90
7936;DHT22;4013;49.744;8.118;2023-05-10T03:37:20;13.00;99.90
7936;DHT22;4013;49.744;8.118;2023-05-10T03:48:41;13.00;99.90
7936;DHT22;4013;49.744;8.118;2023-05-10T03:51:08;13.10;99.90
7936;DHT22;4013;49.744;8.118;2023-05-10T03:56:39;13.00;99.90
7936;DHT22;4013;49.744;8.118;2023-05-10T03:59:26;13.00;99.90
7936;DHT22;4013;49.744;8.118;2023-05-10T04:02:13;13.00;99.90
7936;DHT22;4013;49.744;8.118;2023-05-10T04:07:43;13.00;99.90
7936;DHT22;4013;49.744;8.118;2023-05-10T04:10:10;12.90;99.90
7936;DHT22;4013;49.744;8.118;2023-05-10T04:16:01;12.80;99.90
7936;DHT22;4013;49.744;8.118;2023-05-10T04:18:47;12.80;99.90
7936;DHT22;4013;49.744;8.118;2023-05-10T04:24:18;12.80;99.90
7936;DHT22;4013;49.744;8.118;2023-05-10T04:27:02;12.90;99.90
7936;DHT22;4013;49.744;8.118;2023-05-10T04:29:29;12.90;99.90
7936;DHT22;4013;49.744;8.118;2023-05-10T04:31:57;12.90;99.90
7936;DHT22;4013;49.744;8.118;2023-05-10T04:34:24;12.90;99.90
7936;DHT22;4013;49.744;8.118;2023-05-10T04:37:27;12.90;99.90
7936;DHT22;4013;49.744;8.118;2023-05-10T04:42:40;12.90;99.90
7936;DHT22;4013;49.744;8.118;2023-05-10T04:45:08;12.90;99.90
7936;DHT22;4013;49.744;8.118;2023-05-10T04:48:12;13.00;99.90
7936;DHT22;4013;49.744;8.118;2023-05-10T04:50:58;12.90;99.90
7936;DHT22;4013;49.744;8.118;2023-05-10T04:53:43;13.00;99.90
7936;DHT22;4013;49.744;8.118;2023-05-10T04:59:32;13.00;99.90
7936;DHT22;4013;49.744;8.118;2023-05-10T05:01:59;13.00;99.90
7936;DHT22;4013;49.744;8.118;2023-05-10T05:04:27;13.00;99.90
7936;DHT22;4013;49.744;8.118;2023-05-10T05:06:54;13.00;99.90
7936;DHT22;4013;49.744;8.118;2023-05-10T05:09:21;13.00;99.90
7936;DHT22;4013;49.744;8.118;2023-05-10T05:11:48;13.00;99.90
7936;DHT22;4013;49.744;8.118;2023-05-10T05:14:15;13.00;99.90
7936;DHT22;4013;49.744;8.118;2023-05-10T05:22:16;13.20;99.90
7936;DHT22;4013;49.744;8.118;2023-05-10T05:24:44;13.20;99.90
7936;DHT22;4013;49.744;8.118;2023-05-10T05:27:11;13.30;99.90
7936;DHT22;4013;49.744;8.118;2023-05-10T05:29:38;13.30;99.90
7936;DHT22;4013;49.744;8.118;2023-05-10T05:32:05;13.40;99.90
7936;DHT22;4013;49.744;8.118;2023-05-10T05:34:35;13.40;99.90
7936;DHT22;4013;49.744;8.118;2023-05-10T05:37:02;13.40;99.90
7936;DHT22;4013;49.744;8.118;2023-05-10T05:39:29;13.50;99.90
7936;DHT22;4013;49.744;8.118;2023-05-10T05:47:45;13.70;99.90
7936;DHT22;4013;49.744;8.118;2023-05-10T05:50:31;13.80;99.90
7936;DHT22;4013;49.744;8.118;2023-05-10T05:52:57;13.90;99.90
7936;DHT22;4013;49.744;8.118;2023-05-10T05:55:24;13.90;99.90
7936;DHT22;4013;49.744;8.118;2023-05-10T05:57:52;14.00;99.90
7936;DHT22;4013;49.744;8.118;2023-05-10T06:00:19;14.10;99.90
7936;DHT22;4013;49.744;8.118;2023-05-10T06:03:05;14.20;99.90
7936;DHT22;4013;49.744;8.118;2023-05-10T06:05:33;14.20;99.90
7936;DHT22;4013;49.744;8.118;2023-05-10T06:08:00;14.20;99.90
7936;DHT22;4013;49.744;8.118;2023-05-10T06:13:13;14.30;99.90
7936;DHT22;4013;49.744;8.118;2023-05-10T06:15:40;14.30;99.90
7936;DHT22;4013;49.744;8.118;2023-05-10T06:20:53;14.50;99.90
7936;DHT22;4013;49.744;8.118;2023-05-10T06:23:20;14.60;99.90
7936;DHT22;4013;49.744;8.118;2023-05-10T06:25:48;14.60;99.90
7936;DHT22;4013;49.744;8.118;2023-05-10T06:28:15;14.80;99.90
7936;DHT22;4013;49.744;8.118;2023-05-10T06:30:42;14.80;99.90
7936;DHT22;4013;49.744;8.118;2023-05-10T06:33:27;14.90;99.90
7936;DHT22;4013;49.744;8.118;2023-05-10T06:36:32;15.00;99.90
7936;DHT22;4013;49.744;8.118;2023-05-10T06:38:59;15.10;99.90
7936;DHT22;4013;49.744;8.118;2023-05-10T06:41:43;15.10;99.90
7936;DHT22;4013;49.744;8.118;2023-05-10T06:47:13;15.00;99.90
7936;DHT22;4013;49.744;8.118;2023-05-10T06:49:40;15.00;99.90
7936;DHT22;4013;49.744;8.118;2023-05-10T06:52:26;14.90;99.90
7936;DHT22;4013;49.744;8.118;2023-05-10T06:54:53;14.80;99.90
7936;DHT22;4013;49.744;8.118;2023-05-10T06:57:20;14.70;99.90
7936;DHT22;4013;49.744;8.118;2023-05-10T07:00:06;14.70;99.90
7936;DHT22;4013;49.744;8.118;2023-05-10T07:02:50;14.70;99.90
7936;DHT22;4013;49.744;8.118;2023-05-10T07:05:17;14.80;99.90
7936;DHT22;4013;49.744;8.118;2023-05-10T07:13:18;15.00;99.90
7936;DHT22;4013;49.744;8.118;2023-05-10T07:16:21;15.10;99.90
7936;DHT22;4013;49.744;8.118;2023-05-10T07:18:48;15.20;99.90
7936;DHT22;4013;49.744;8.118;2023-05-10T07:21:16;15.30;99.90
7936;DHT22;4013;49.744;8.118;2023-05-10T07:23:44;15.50;99.90
7936;DHT22;4013;49.744;8.118;2023-05-10T07:26:30;15.50;99.90
7936;DHT22;4013;49.744;8.118;2023-05-10T07:28:57;15.50;99.90
7936;DHT22;4013;49.744;8.118;2023-05-10T07:31:24;15.60;99.90
7936;DHT22;4013;49.744;8.118;2023-05-10T07:37:14;15.70;99.90
7936;DHT22;4013;49.744;8.118;2023-05-10T07:39:42;15.60;99.90
7936;DHT22;4013;49.744;8.118;2023-05-10T07:42:28;15.60;99.90
7936;DHT22;4013;49.744;8.118;2023-05-10T07:44:55;15.60;99.90
7936;DHT22;4013;49.744;8.118;2023-05-10T07:47:24;15.50;99.90
7936;DHT22;4013;49.744;8.118;2023-05-10T07:49:51;15.40;99.90
7936;DHT22;4013;49.744;8.118;2023-05-10T07:52:18;15.40;99.90
7936;DHT22;4013;49.744;8.118;2023-05-10T07:54:46;15.40;99.90
7936;DHT22;4013;49.744;8.118;2023-05-10T07:57:13;15.40;99.90
7936;DHT22;4013;49.744;8.118;2023-05-10T08:00:01;15.50;99.90
7936;DHT22;4013;49.744;8.118;2023-05-10T08:02:46;15.50;99.90
7936;DHT22;4013;49.744;8.118;2023-05-10T08:05:13;15.50;99.90
7936;DHT22;4013;49.744;8.118;2023-05-10T08:10:44;15.50;99.90
7936;DHT22;4013;49.744;8.118;2023-05-10T08:13:30;15.60;99.90
7936;DHT22;4013;49.744;8.118;2023-05-10T08:15:59;15.70;99.90
7936;DHT22;4013;49.744;8.118;2023-05-10T08:19:02;15.70;99.90
7936;DHT22;4013;49.744;8.118;2023-05-10T08:21:48;15.80;99.90
7936;DHT22;4013;49.744;8.118;2023-05-10T08:30:06;16.00;99.90
7936;DHT22;4013;49.744;8.118;2023-05-10T08:32:33;16.00;99.90
7936;DHT22;4013;49.744;8.118;2023-05-10T08:35:36;16.10;99.90
7936;DHT22;4013;49.744;8.118;2023-05-10T08:38:21;16.10;99.90
7936;DHT22;4013;49.744;8.118;2023-05-10T08:43:36;16.20;99.90
7936;DHT22;4013;49.744;8.118;2023-05-10T08:46:05;16.20;99.90
7936;DHT22;4013;49.744;8.118;2023-05-10T08:48:51;16.20;99.90
7936;DHT22;4013;49.744;8.118;2023-05-10T08:51:23;16.10;99.90
7936;DHT22;4013;49.744;8.118;2023-05-10T08:56:38;16.00;99.90
7936;DHT22;4013;49.744;8.118;2023-05-10T08:59:25;16.00;99.90
7936;DHT22;4013;49.744;8.118;2023-05-10T09:01:52;16.00;99.90
7936;DHT22;4013;49.744;8.118;2023-05-10T09:04:39;15.90;99.90
7936;DHT22;4013;49.744;8.118;2023-05-10T09:07:06;16.00;99.90
7936;DHT22;4013;49.744;8.118;2023-05-10T09:09:52;15.90;99.90
7936;DHT22;4013;49.744;8.118;2023-05-10T09:12:21;15.90;99.90
7936;DHT22;4013;49.744;8.118;2023-05-10T09:17:54;16.10;99.90
7936;DHT22;4013;49.744;8.118;2023-05-10T09:23:44;16.10;99.90
7936;DHT22;4013;49.744;8.118;2023-05-10T09:26:12;16.10;99.90
7936;DHT22;4013;49.744;8.118;2023-05-10T09:28:50;16.10;99.90
7936;DHT22;4013;49.744;8.118;2023-05-10T09:31:19;16.10;99.90
7936;DHT22;4013;49.744;8.118;2023-05-10T09:34:03;16.10;99.90
7936;DHT22;4013;49.744;8.118;2023-05-10T09:36:31;16.20;99.90
7936;DHT22;4013;49.744;8.118;2023-05-10T09:39:15;16.20;99.90
7936;DHT22;4013;49.744;8.118;2023-05-10T09:44:45;16.20;99.90
7936;DHT22;4013;49.744;8.118;2023-05-10T09:47:18;16.10;99.90
7936;DHT22;4013;49.744;8.118;2023-05-10T09:52:46;16.10;99.90
7936;DHT22;4013;49.744;8.118;2023-05-10T09:55:14;16.20;99.90
7936;DHT22;4013;49.744;8.118;2023-05-10T09:57:41;16.20;99.90
7936;DHT22;4013;49.744;8.118;2023-05-10T10:00:27;16.20;99.90
7936;DHT22;4013;49.744;8.118;2023-05-10T10:06:18;16.20;99.90
7936;DHT22;4013;49.744;8.118;2023-05-10T10:08:46;16.20;99.90
7936;DHT22;4013;49.744;8.118;2023-05-10T10:11:13;16.20;99.90
7936;DHT22;4013;49.744;8.118;2023-05-10T10:13:58;16.30;99.90
7936;DHT22;4013;49.744;8.118;2023-05-10T10:16:27;16.30;99.90
7936;DHT22;4013;49.744;8.118;2023-05-10T10:18:57;16.50;99.90
7936;DHT22;4013;49.744;8.118;2023-05-10T10:21:42;16.60;99.90
7936;DHT22;4013;49.744;8.118;2023-05-10T10:24:09;16.70;99.90
7936;DHT22;4013;49.744;8.118;2023-05-10T10:29:29;16.70;99.90
7936;DHT22;4013;49.744;8.118;2023-05-10T10:32:07;16.80;99.90
7936;DHT22;4013;49.744;8.118;2023-05-10T10:34:39;16.90;99.90
7936;DHT22;4013;49.744;8.118;2023-05-10T10:37:07;16.80;99.90
7936;DHT22;4013;49.744;8.118;2023-05-10T10:42:46;16.90;99.90
7936;DHT22;4013;49.744;8.118;2023-05-10T10:45:30;17.00;99.90
7936;DHT22;4013;49.744;8.118;2023-05-10T10:48:19;17.10;99.90
7936;DHT22;4013;49.744;8.118;2023-05-10T10:51:07;17.10;99.90
7936;DHT22;4013;49.744;8.118;2023-05-10T10:53:53;17.00;99.90
7936;DHT22;4013;49.744;8.118;2023-05-10T10:56:22;17.00;99.90
7936;DHT22;4013;49.744;8.118;2023-05-10T10:58:50;17.00;99.90
7936;DHT22;4013;49.744;8.118;2023-05-10T11:04:24;16.90;99.90
7936;DHT22;4013;49.744;8.118;2023-05-10T11:07:16;16.90;99.90
7936;DHT22;4013;49.744;8.118;2023-05-10T11:10:04;16.80;99.90
7936;DHT22;4013;49.744;8.118;2023-05-10T11:12:31;16.80;99.90
7936;DHT22;4013;49.744;8.118;2023-05-10T11:14:58;16.90;99.90
7936;DHT22;4013;49.744;8.118;2023-05-10T11:20:38;16.80;99.90
7936;DHT22;4013;49.744;8.118;2023-05-10T11:23:14;16.90;99.90
7936;DHT22;4013;49.744;8.118;2023-05-10T11:26:17;17.00;99.90
7936;DHT22;4013;49.744;8.118;2023-05-10T11:29:02;17.10;99.90
7936;DHT22;4013;49.744;8.118;2023-05-10T11:31:30;17.20;99.90
7936;DHT22;4013;49.744;8.118;2023-05-10T11:34:22;17.30;99.90
7936;DHT22;4013;49.744;8.118;2023-05-10T11:36:51;17.30;99.90
7936;DHT22;4013;49.744;8.118;2023-05-10T11:39:21;17.40;99.90
7936;DHT22;4013;49.744;8.118;2023-05-10T11:42:05;17.40;99.90
7936;DHT22;4013;49.744;8.118;2023-05-10T11:45:08;17.60;99.90
7936;DHT22;4013;49.744;8.118;2023-05-10T11:47:35;17.70;99.90
7936;DHT22;4013;49.744;8.118;2023-05-10T11:52:51;17.80;99.90
7936;DHT22;4013;49.744;8.118;2023-05-10T11:55:20;17.90;99.90
7936;DHT22;4013;49.744;8.118;2023-05-10T11:57:47;17.90;99.90
7936;DHT22;4013;49.744;8.118;2023-05-10T12:00:14;17.80;99.90
7936;DHT22;4013;49.744;8.118;2023-05-10T12:03:00;17.90;99.90
7936;DHT22;4013;49.744;8.118;2023-05-10T12:06:03;18.10;99.90
7936;DHT22;4013;49.744;8.118;2023-05-10T12:08:31;18.00;99.90
7936;DHT22;4013;49.744;8.118;2023-05-10T12:11:06;18.10;99.90
7936;DHT22;4013;49.744;8.118;2023-05-10T12:16:43;18.10;99.90
7936;DHT22;4013;49.744;8.118;2023-05-10T12:19:10;18.10;99.90
7936;DHT22;4013;49.744;8.118;2023-05-10T12:24:24;17.80;99.90
7936;DHT22;4013;49.744;8.118;2023-05-10T12:27:32;17.80;99.90
7936;DHT22;4013;49.744;8.118;2023-05-10T12:32:44;17.90;99.90
7936;DHT22;4013;49.744;8.118;2023-05-10T12:35:32;18.10;99.90
7936;DHT22;4013;49.744;8.118;2023-05-10T12:38:25;18.20;99.90
7936;DHT22;4013;49.744;8.118;2023-05-10T12:40:52;18.30;99.90
7936;DHT22;4013;49.744;8.118;2023-05-10T12:43:20;18.30;99.90
7936;DHT22;4013;49.744;8.118;2023-05-10T12:45:48;18.30;99.90
7936;DHT22;4013;49.744;8.118;2023-05-10T12:51:19;18.40;99.90
7936;DHT22;4013;49.744;8.118;2023-05-10T12:53:47;18.40;99.90
7936;DHT22;4013;49.744;8.118;2023-05-10T12:56:14;18.40;99.90
7936;DHT22;4013;49.744;8.118;2023-05-10T12:58:42;18.30;99.90
7936;DHT22;4013;49.744;8.118;2023-05-10T13:01:27;18.20;99.90
7936;DHT22;4013;49.744;8.118;2023-05-10T13:04:12;18.30;99.90
7936;DHT22;4013;49.744;8.118;2023-05-10T13:06:57;18.40;99.90
7936;DHT22;4013;49.744;8.118;2023-05-10T13:10:00;18.30;99.90
7936;DHT22;4013;49.744;8.118;2023-05-10T13:12:45;18.40;99.90
7936;DHT22;4013;49.744;8.118;2023-05-10T13:15:13;18.30;99.90
7936;DHT22;4013;49.744;8.118;2023-05-10T13:18:16;18.30;99.90
7936;DHT22;4013;49.744;8.118;2023-05-10T13:21:19;18.20;99.90
7936;DHT22;4013;49.744;8.118;2023-05-10T13:23:46;18.20;99.90
7936;DHT22;4013;49.744;8.118;2023-05-10T13:26:13;18.00;99.90
7936;DHT22;4013;49.744;8.118;2023-05-10T13:29:16;18.00;99.90
7936;DHT22;4013;49.744;8.118;2023-05-10T13:31:45;18.00;99.90
7936;DHT22;4013;49.744;8.118;2023-05-10T13:36:57;18.00;99.90
7936;DHT22;4013;49.744;8.118;2023-05-10T13:39:42;18.00;99.90
7936;DHT22;4013;49.744;8.118;2023-05-10T13:42:26;18.00;99.90
7936;DHT22;4013;49.744;8.118;2023-05-10T13:45:11;18.00;99.90
7936;DHT22;4013;49.744;8.118;2023-05-10T13:47:40;18.10;99.90
7936;DHT22;4013;49.744;8.118;2023-05-10T13:50:07;18.10;99.90
7936;DHT22;4013;49.744;8.118;2023-05-10T13:52:52;18.10;99.90
7936;DHT22;4013;49.744;8.118;2023-05-10T13:55:20;18.20;99.90
7936;DHT22;4013;49.744;8.118;2023-05-10T14:00:32;18.20;99.90
7936;DHT22;4013;49.744;8.118;2023-05-10T14:03:37;18.10;99.90
7936;DHT22;4013;49.744;8.118;2023-05-10T14:06:04;18.10;99.90
7936;DHT22;4013;49.744;8.118;2023-05-10T14:08:32;18.10;99.90
7936;DHT22;4013;49.744;8.118;2023-05-10T14:11:00;18.20;99.90
7936;DHT22;4013;49.744;8.118;2023-05-10T14:13:27;18.20;99.90
7936;DHT22;4013;49.744;8.118;2023-05-10T14:15:54;18.10;99.90
7936;DHT22;4013;49.744;8.118;2023-05-10T14:18:22;18.10;99.90
7936;DHT22;4013;49.744;8.118;2023-05-10T14:21:08;18.00;99.90
7936;DHT22;4013;49.744;8.118;2023-05-10T14:23:54;18.10;99.90
7936;DHT22;4013;49.744;8.118;2023-05-10T14:26:21;18.20;99.90
7936;DHT22;4013;49.744;8.118;2023-05-10T14:31:33;18.20;99.90
7936;DHT22;4013;49.744;8.118;2023-05-10T14:39:51;18.30;99.90
7936;DHT22;4013;49.744;8.118;2023-05-10T14:42:18;18.40;99.90
7936;DHT22;4013;49.744;8.118;2023-05-10T14:45:02;18.50;99.90
7936;DHT22;4013;49.744;8.118;2023-05-10T14:47:46;18.60;99.90
7936;DHT22;4013;49.744;8.118;2023-05-10T14:50:31;18.60;99.90
7936;DHT22;4013;49.744;8.118;2023-05-10T14:56:03;18.50;99.90
7936;DHT22;4013;49.744;8.118;2023-05-10T14:58:30;18.30;99.90
7936;DHT22;4013;49.744;8.118;2023-05-10T15:00:57;18.30;99.90
7936;DHT22;4013;49.744;8.118;2023-05-10T15:04:00;18.30;99.90
7936;DHT22;4013;49.744;8.118;2023-05-10T15:06:31;18.40;99.90
7936;DHT22;4013;49.744;8.118;2023-05-10T15:09:17;18.50;99.90
7936;DHT22;4013;49.744;8.118;2023-05-10T15:11:44;18.40;99.90
7936;DHT22;4013;49.744;8.118;2023-05-10T15:14:11;18.30;99.90
7936;DHT22;4013;49.744;8.118;2023-05-10T15:16:56;18.40;99.90
7936;DHT22;4013;49.744;8.118;2023-05-10T15:19:24;18.50;99.90
7936;DHT22;4013;49.744;8.118;2023-05-10T15:21:51;18.70;99.90
7936;DHT22;4013;49.744;8.118;2023-05-10T15:24:19;18.80;99.90
7936;DHT22;4013;49.744;8.118;2023-05-10T15:26:46;18.80;99.90
7936;DHT22;4013;49.744;8.118;2023-05-10T15:29:31;18.70;99.90
7936;DHT22;4013;49.744;8.118;2023-05-10T15:32:01;18.70;99.90
7936;DHT22;4013;49.744;8.118;2023-05-10T15:34:29;18.60;99.90
7936;DHT22;4013;49.744;8.118;2023-05-10T15:36:56;18.70;99.90
7936;DHT22;4013;49.744;8.118;2023-05-10T15:42:47;18.70;99.90
7936;DHT22;4013;49.744;8.118;2023-05-10T15:45:14;18.60;99.90
7936;DHT22;4013;49.744;8.118;2023-05-10T15:47:41;18.60;99.90
7936;DHT22;4013;49.744;8.118;2023-05-10T15:56:34;18.20;99.90
7936;DHT22;4013;49.744;8.118;2023-05-10T15:59:21;17.90;99.90
7936;DHT22;4013;49.744;8.118;2023-05-10T16:02:07;17.80;99.90
7936;DHT22;4013;49.744;8.118;2023-05-10T16:04:52;18.10;99.90
7936;DHT22;4013;49.744;8.118;2023-05-10T16:07:36;18.30;99.90
7936;DHT22;4013;49.744;8.118;2023-05-10T16:16:31;18.30;99.90
7936;DHT22;4013;49.744;8.118;2023-05-10T16:19:17;18.20;99.90
7936;DHT22;4013;49.744;8.118;2023-05-10T16:21:44;18.10;99.90
7936;DHT22;4013;49.744;8.118;2023-05-10T16:24:11;18.20;99.90
7936;DHT22;4013;49.744;8.118;2023-05-10T16:26:56;18.00;99.90
7936;DHT22;4013;49.744;8.118;2023-05-10T16:35:14;18.10;99.90
7936;DHT22;4013;49.744;8.118;2023-05-10T16:37:59;18.10;99.90
7936;DHT22;4013;49.744;8.118;2023-05-10T16:40:43;18.00;99.90
7936;DHT22;4013;49.744;8.118;2023-05-10T16:43:12;18.00;99.90
7936;DHT22;4013;49.744;8.118;2023-05-10T16:45:58;17.90;99.90
7936;DHT22;4013;49.744;8.118;2023-05-10T16:48:25;17.90;99.90
7936;DHT22;4013;49.744;8.118;2023-05-10T16:50:52;17.90;99.90
7936;DHT22;4013;49.744;8.118;2023-05-10T16:53:19;17.90;99.90
7936;DHT22;4013;49.744;8.118;2023-05-10T16:56:03;17.90;99.90
7936;DHT22;4013;49.744;8.118;2023-05-10T16:58:30;17.90;99.90
7936;DHT22;4013;49.744;8.118;2023-05-10T17:03:44;17.80;99.90
7936;DHT22;4013;49.744;8.118;2023-05-10T17:09:15;17.80;99.90
7936;DHT22;4013;49.744;8.118;2023-05-10T17:14:28;17.70;99.90
7936;DHT22;4013;49.744;8.118;2023-05-10T17:20:37;17.70;99.90
7936;DHT22;4013;49.744;8.118;2023-05-10T17:23:04;17.70;99.90
7936;DHT22;4013;49.744;8.118;2023-05-10T17:25:31;17.70;99.90
7936;DHT22;4013;49.744;8.118;2023-05-10T17:31:22;17.70;99.90
7936;DHT22;4013;49.744;8.118;2023-05-10T17:36:54;17.70;99.90
7936;DHT22;4013;49.744;8.118;2023-05-10T17:42:07;17.70;99.90
7936;DHT22;4013;49.744;8.118;2023-05-10T17:44:51;17.70;99.90
7936;DHT22;4013;49.744;8.118;2023-05-10T17:47:36;17.70;99.90
7936;DHT22;4013;49.744;8.118;2023-05-10T17:52:50;17.50;99.90
7936;DHT22;4013;49.744;8.118;2023-05-10T17:55:53;17.50;99.90
7936;DHT22;4013;49.744;8.118;2023-05-10T17:58:22;17.50;99.90
7936;DHT22;4013;49.744;8.118;2023-05-10T18:06:57;17.40;99.90
7936;DHT22;4013;49.744;8.118;2023-05-10T18:09:46;17.30;99.90
7936;DHT22;4013;49.744;8.118;2023-05-10T18:12:32;17.40;99.90
7936;DHT22;4013;49.744;8.118;2023-05-10T18:14:59;17.30;99.90
7936;DHT22;4013;49.744;8.118;2023-05-10T18:17:45;17.30;99.90
7936;DHT22;4013;49.744;8.118;2023-05-10T18:20:11;17.30;99.90
7936;DHT22;4013;49.744;8.118;2023-05-10T18:22:57;17.30;99.90
7936;DHT22;4013;49.744;8.118;2023-05-10T18:25:25;17.40;99.90
7936;DHT22;4013;49.744;8.118;2023-05-10T18:27:52;17.30;99.90
7936;DHT22;4013;49.744;8.118;2023-05-10T18:30:38;17.20;99.90
7936;DHT22;4013;49.744;8.118;2023-05-10T18:33:05;17.20;99.90
7936;DHT22;4013;49.744;8.118;2023-05-10T18:35:49;17.10;99.90
7936;DHT22;4013;49.744;8.118;2023-05-10T18:38:16;17.10;99.90
7936;DHT22;4013;49.744;8.118;2023-05-10T18:41:04;17.00;99.90
7936;DHT22;4013;49.744;8.118;2023-05-10T18:46:34;16.90;99.90
7936;DHT22;4013;49.744;8.118;2023-05-10T18:52:22;16.80;99.90
7936;DHT22;4013;49.744;8.118;2023-05-10T18:57:55;16.60;99.90
7936;DHT22;4013;49.744;8.118;2023-05-10T19:00:40;16.40;99.90
7936;DHT22;4013;49.744;8.118;2023-05-10T19:03:43;16.30;99.90
7936;DHT22;4013;49.744;8.118;2023-05-10T19:06:28;16.20;99.90
7936;DHT22;4013;49.744;8.118;2023-05-10T19:08:55;16.20;99.90
7936;DHT22;4013;49.744;8.118;2023-05-10T19:11:22;16.00;99.90
7936;DHT22;4013;49.744;8.118;2023-05-10T19:14:09;16.00;99.90
7936;DHT22;4013;49.744;8.118;2023-05-10T19:16:37;15.90;99.90
7936;DHT22;4013;49.744;8.118;2023-05-10T19:19:04;15.80;99.90
7936;DHT22;4013;49.744;8.118;2023-05-10T19:21:31;15.80;99.90
7936;DHT22;4013;49.744;8.118;2023-05-10T19:27:20;15.60;99.90
7936;DHT22;4013;49.744;8.118;2023-05-10T19:32:34;15.50;99.90
7936;DHT22;4013;49.744;8.118;2023-05-10T19:38:04;15.40;99.90
7936;DHT22;4013;49.744;8.118;2023-05-10T19:40:31;15.40;99.90
7936;DHT22;4013;49.744;8.118;2023-05-10T19:43:17;15.30;99.90
7936;DHT22;4013;49.744;8.118;2023-05-10T19:45:45;15.30;99.90
7936;DHT22;4013;49.744;8.118;2023-05-10T19:48:48;15.20;99.90
7936;DHT22;4013;49.744;8.118;2023-05-10T19:51:15;15.10;99.90
7936;DHT22;4013;49.744;8.118;2023-05-10T19:53:42;15.00;99.90
7936;DHT22;4013;49.744;8.118;2023-05-10T19:56:26;15.00;99.90
7936;DHT22;4013;49.744;8.118;2023-05-10T19:58:54;14.90;99.90
7936;DHT22;4013;49.744;8.118;2023-05-10T20:01:22;14.90;99.90
7936;DHT22;4013;49.744;8.118;2023-05-10T20:03:49;14.90;99.90
7936;DHT22;4013;49.744;8.118;2023-05-10T20:12:24;14.70;99.90
7936;DHT22;4013;49.744;8.118;2023-05-10T20:14:51;14.70;99.90
7936;DHT22;4013;49.744;8.118;2023-05-10T20:17:19;14.80;99.90
7936;DHT22;4013;49.744;8.118;2023-05-10T20:20:04;14.70;99.90
7936;DHT22;4013;49.744;8.118;2023-05-10T20:22:32;14.60;99.90
7936;DHT22;4013;49.744;8.118;2023-05-10T20:28:38;14.50;99.90
7936;DHT22;4013;49.744;8.118;2023-05-10T20:31:22;14.40;99.90
7936;DHT22;4013;49.744;8.118;2023-05-10T20:36:36;14.20;99.90
7936;DHT22;4013;49.744;8.118;2023-05-10T20:39:03;14.10;99.90
7936;DHT22;4013;49.744;8.118;2023-05-10T20:41:30;14.20;99.90
7936;DHT22;4013;49.744;8.118;2023-05-10T20:44:15;14.20;99.90
7936;DHT22;4013;49.744;8.118;2023-05-10T20:46:42;14.10;99.90
7936;DHT22;4013;49.744;8.118;2023-05-10T20:52:15;14.00;99.90
7936;DHT22;4013;49.744;8.118;2023-05-10T20:54:42;14.00;99.90
7936;DHT22;4013;49.744;8.118;2023-05-10T20:57:09;13.80;99.90
7936;DHT22;4013;49.744;8.118;2023-05-10T20:59:56;13.70;99.90
7936;DHT22;4013;49.744;8.118;2023-05-10T21:02:43;13.70;99.90
7936;DHT22;4013;49.744;8.118;2023-05-10T21:05:28;13.70;99.90
7936;DHT22;4013;49.744;8.118;2023-05-10T21:13:29;13.80;99.90
7936;DHT22;4013;49.744;8.118;2023-05-10T21:21:44;13.90;99.90